Time;durP1;ratioP1;P1;durP2;ratioP2;P2;SDS_P1;SDS_P2;PMS_P1;PMS_P2;Temp;Humidity;BMP_temperature;BMP_pressure;BME280_temperature;BME280_humidity;BME280_pressure;Samples;Min_cycle;Max_cycle;Signal;HPM_P1;HPM_P2
2022/08/15 00:00:26;;;;;;;8.95;3.58;;;;;;;17.67;69.57;91969.81;5063750;28;20083;-78
2022/08/15 00:02:52;;;;;;;4.57;3.13;;;;;;;17.63;69.91;91958.38;5039290;28;20045;-80
2022/08/15 00:05:22;;;;;;;9.15;3.38;;;;;;;17.61;69.95;91955.31;5026389;28;20553;-80
2022/08/15 00:07:48;;;;;;;9.32;3.50;;;;;;;17.58;69.62;91962.03;5060239;28;20116;-80
2022/08/15 00:10:16;;;;;;;7.70;3.40;;;;;;;17.54;69.60;91958.56;5060998;28;20453;-81
2022/08/15 00:12:42;;;;;;;7.63;3.50;;;;;;;17.56;69.31;91961.63;5061728;28;20035;-81
2022/08/15 00:15:11;;;;;;;5.03;3.22;;;;;;;17.57;69.44;91962.41;5041721;28;20121;-81
2022/08/15 00:17:37;;;;;;;9.15;3.30;;;;;;;17.52;69.24;91958.13;5033922;28;20091;-81
2022/08/15 00:20:04;;;;;;;6.15;3.53;;;;;;;17.54;69.40;91953.28;5042653;28;20588;-81
2022/08/15 00:22:29;;;;;;;6.55;3.33;;;;;;;17.54;69.00;91955.13;5026647;28;20033;-79
2022/08/15 00:24:55;;;;;;;7.93;3.50;;;;;;;17.58;69.21;91956.75;5028363;28;20132;-79
2022/08/15 00:27:24;;;;;;;6.28;3.72;;;;;;;17.59;69.08;91960.94;5046767;28;20041;-80
2022/08/15 00:29:51;;;;;;;5.57;3.60;;;;;;;17.59;69.61;91963.59;5044161;28;20494;-80
2022/08/15 00:32:23;;;;;;;8.02;3.33;;;;;;;17.61;69.48;91956.09;5042911;28;20494;-79
2022/08/15 00:34:50;;;;;;;6.80;3.83;;;;;;;17.65;69.88;91954.28;5060657;28;20044;-79
2022/08/15 00:37:18;;;;;;;9.18;3.50;;;;;;;17.65;70.18;91961.44;5027498;28;20036;-80
2022/08/15 00:39:45;;;;;;;8.50;3.63;;;;;;;17.66;69.95;91958.47;5060460;28;20047;-81
2022/08/15 00:42:11;;;;;;;7.00;3.60;;;;;;;17.67;70.17;91954.72;5061403;28;20490;-80
2022/08/15 00:44:44;;;;;;;7.57;3.67;;;;;;;17.69;70.19;91955.13;5038950;28;20060;-80
2022/08/15 00:47:13;;;;;;;5.93;3.22;;;;;;;17.71;70.53;91959.31;5029530;28;20044;-80
2022/08/15 00:49:39;;;;;;;8.20;3.60;;;;;;;17.72;70.39;91948.41;5038577;28;20071;-80
2022/08/15 00:52:24;;;;;;;7.30;3.60;;;;;;;17.72;70.60;91956.34;5043569;28;20043;-80
2022/08/15 00:54:53;;;;;;;7.00;3.45;;;;;;;17.78;70.87;91954.19;5040084;28;20032;-80
2022/08/15 00:57:47;;;;;;;7.95;3.47;;;;;;;17.77;70.91;91950.78;5007824;28;20079;-80
2022/08/15 01:00:25;;;;;;;5.93;3.60;;;;;;;17.80;71.41;91952.72;5038982;28;20414;-81
2022/08/15 01:02:54;;;;;;;4.90;3.33;;;;;;;17.77;71.39;91944.72;5043957;28;20037;-80
2022/08/15 01:05:21;;;;;;;8.13;3.90;;;;;;;17.79;71.26;91950.44;5057614;28;20026;-80
2022/08/15 01:07:47;;;;;;;7.65;3.83;;;;;;;17.80;71.09;91951.97;5024453;28;20053;-81
2022/08/15 01:10:13;;;;;;;8.88;3.63;;;;;;;17.77;70.75;91944.72;5008348;28;20037;-80
2022/08/15 01:12:40;;;;;;;6.72;3.58;;;;;;;17.75;71.14;91944.28;5021877;28;20053;-81
2022/08/15 01:15:14;;;;;;;7.45;3.83;;;;;;;17.73;71.56;91944.63;5043383;28;20025;-80
2022/08/15 01:17:41;;;;;;;5.15;3.63;;;;;;;17.75;71.61;91946.94;5060731;28;20032;-80
2022/08/15 01:20:16;;;;;;;8.00;3.60;;;;;;;17.74;71.58;91940.09;5042918;28;20093;-80
2022/08/15 01:22:56;;;;;;;4.82;3.50;;;;;;;17.74;71.53;91937.44;5042629;28;20032;-80
2022/08/15 01:25:31;;;;;;;6.28;3.70;;;;;;;17.68;71.22;91935.06;5044048;28;20033;-81
2022/08/15 01:28:11;;;;;;;5.80;3.67;;;;;;;17.64;71.38;91933.44;5042874;28;20037;-79
2022/08/15 01:30:56;;;;;;;6.53;3.83;;;;;;;17.65;72.01;91935.78;5043544;28;20029;-79
2022/08/15 01:33:24;;;;;;;7.85;4.50;;;;;;;17.59;73.33;91939.00;5042683;28;20044;-79
2022/08/15 01:35:52;;;;;;;6.85;3.90;;;;;;;17.56;72.72;91937.81;5043813;28;20097;-79
2022/08/15 01:38:19;;;;;;;8.20;4.00;;;;;;;17.53;73.19;91938.50;5024186;28;20021;-79
2022/08/15 01:41:09;;;;;;;5.72;3.78;;;;;;;17.52;73.17;91941.47;5023678;28;20038;-79
2022/08/15 01:43:57;;;;;;;6.35;4.05;;;;;;;17.45;73.17;91934.91;5045812;28;20061;-80
2022/08/15 01:46:32;;;;;;;11.15;3.67;;;;;;;17.45;73.03;91944.72;5026898;28;20033;-79
2022/08/15 01:49:05;;;;;;;8.85;3.97;;;;;;;17.45;73.08;91934.91;5059104;28;20036;-78
2022/08/15 01:51:30;;;;;;;6.03;3.85;;;;;;;17.50;73.14;91938.41;5061456;28;20037;-79
2022/08/15 01:54:03;;;;;;;5.30;3.70;;;;;;;17.41;72.94;91930.66;5040637;28;20064;-79
2022/08/15 01:56:34;;;;;;;;;;;;;;;17.43;72.95;91934.50;5044135;28;20028;-78
2022/08/15 01:59:03;;;;;;;5.50;3.85;;;;;;;17.40;72.96;91934.38;5010273;28;19921;-79
2022/08/15 02:01:47;;;;;;;7.93;4.10;;;;;;;17.39;72.92;91927.56;5022940;28;20124;-78
2022/08/15 02:04:17;;;;;;;6.72;4.00;;;;;;;17.37;73.37;91935.09;5025091;28;20033;-79
2022/08/15 02:06:44;;;;;;;6.85;4.07;;;;;;;17.33;73.27;91934.97;5043109;28;20040;-78
2022/08/15 02:09:16;;;;;;;7.22;3.60;;;;;;;17.30;73.58;91924.34;5024481;28;20053;-79
2022/08/15 02:11:46;;;;;;;7.00;4.00;;;;;;;17.36;73.70;91928.25;5027616;28;20075;-79
2022/08/15 02:14:13;;;;;;;5.93;3.90;;;;;;;17.35;73.79;91932.00;5043494;28;20056;-79
2022/08/15 02:16:41;;;;;;;8.93;4.72;;;;;;;17.32;73.59;91936.09;5042791;28;20029;-79
2022/08/15 02:19:09;;;;;;;6.05;3.95;;;;;;;17.32;73.72;91930.81;5024929;28;20512;-79
2022/08/15 02:21:36;;;;;;;5.95;3.75;;;;;;;17.35;73.70;91934.66;5026995;28;20125;-79
2022/08/15 02:24:05;;;;;;;5.45;3.80;;;;;;;17.34;73.49;91938.41;5026250;28;20494;-78
2022/08/15 02:26:30;;;;;;;8.30;4.20;;;;;;;17.32;73.49;91932.69;5041729;28;20025;-78
2022/08/15 02:28:56;;;;;;;6.43;3.97;;;;;;;17.32;72.93;91938.00;5040935;28;20052;-79
2022/08/15 02:31:26;;;;;;;6.05;3.58;;;;;;;17.30;72.82;91935.69;5026774;28;20046;-78
2022/08/15 02:33:55;;;;;;;10.80;3.88;;;;;;;17.35;72.86;91947.88;5042654;28;20085;-77
2022/08/15 02:36:23;;;;;;;6.28;4.10;;;;;;;17.36;72.78;91946.75;5041750;28;20029;-79
2022/08/15 02:38:49;;;;;;;5.90;3.60;;;;;;;17.38;72.88;91941.91;5042363;28;20044;-78
2022/08/15 02:41:23;;;;;;;9.80;3.80;;;;;;;17.47;72.82;91945.13;5024025;28;20040;-78
2022/08/15 02:43:50;;;;;;;7.43;4.00;;;;;;;17.45;72.93;91937.56;5006441;28;20049;-79
2022/08/15 02:46:16;;;;;;;5.45;3.97;;;;;;;17.46;73.14;91933.03;5024425;28;20041;-78
2022/08/15 02:48:49;;;;;;;6.60;4.07;;;;;;;17.43;73.37;91939.03;5043049;28;20033;-79
2022/08/15 02:51:18;;;;;;;6.00;3.72;;;;;;;17.42;73.70;91934.81;5040652;28;20101;-80
2022/08/15 02:53:47;;;;;;;6.65;3.90;;;;;;;17.44;73.88;91935.25;5042218;28;20025;-80
2022/08/15 02:56:16;;;;;;;6.18;4.15;;;;;;;17.46;74.78;91938.31;5022893;28;20103;-81
2022/08/15 02:58:41;;;;;;;7.47;4.07;;;;;;;17.45;74.96;91934.91;5038894;28;20127;-80
2022/08/15 03:01:09;;;;;;;5.70;3.95;;;;;;;17.45;75.21;91934.91;5022408;28;20639;-80
2022/08/15 03:03:38;;;;;;;8.15;4.20;;;;;;;17.40;74.75;91929.09;5041123;28;20057;-80
2022/08/15 03:06:10;;;;;;;5.55;3.75;;;;;;;17.39;75.05;91930.97;5041972;28;20053;-80
2022/08/15 03:08:37;;;;;;;8.57;4.15;;;;;;;17.39;74.82;91924.94;5021598;28;20038;-81
2022/08/15 03:11:05;;;;;;;5.75;4.25;;;;;;;17.35;75.37;91924.84;5021945;28;20083;-81
2022/08/15 03:13:33;;;;;;;5.93;3.70;;;;;;;17.29;75.05;91923.53;5022661;28;20118;-80
2022/08/15 03:16:00;;;;;;;6.40;4.35;;;;;;;17.30;75.86;91924.34;5040092;28;20060;-80
2022/08/15 03:18:33;;;;;;;6.10;4.03;;;;;;;17.23;76.17;91925.69;5040787;28;20075;-80
2022/08/15 03:21:04;;;;;;;5.78;4.07;;;;;;;17.25;76.20;91918.19;5025878;28;20092;-80
2022/08/15 03:23:32;;;;;;;6.65;4.28;;;;;;;17.23;75.89;91915.09;5026238;28;20037;-80
2022/08/15 03:26:00;;;;;;;9.05;4.30;;;;;;;17.20;75.70;91923.72;5026176;28;20052;-80
2022/08/15 03:28:32;;;;;;;6.97;4.32;;;;;;;17.14;76.19;91914.50;5044807;28;20418;-79
2022/08/15 03:31:04;;;;;;;7.88;4.20;;;;;;;17.12;76.25;91916.72;5043577;28;20110;-79
2022/08/15 03:33:32;;;;;;;6.53;4.38;;;;;;;17.10;76.26;91915.53;5026589;28;20037;-79
2022/08/15 03:35:58;;;;;;;8.02;4.57;;;;;;;17.05;76.41;91911.25;5046006;28;20033;-78
2022/08/15 03:38:25;;;;;;;5.95;4.53;;;;;;;17.02;76.39;91910.06;5030434;28;20127;-80
2022/08/15 03:40:52;;;;;;;8.57;4.43;;;;;;;16.97;76.55;91910.28;5045720;28;20037;-79
2022/08/15 03:43:29;;;;;;;8.20;4.50;;;;;;;16.96;76.83;91908.00;5034293;28;20444;-79
2022/08/15 03:45:56;;;;;;;5.43;4.10;;;;;;;16.92;77.23;91904.50;5009411;28;20110;-78
2022/08/15 03:48:29;;;;;;;7.07;4.47;;;;;;;16.93;77.50;91906.03;5026368;28;20073;-79
2022/08/15 03:50:58;;;;;;;7.95;4.38;;;;;;;16.94;77.37;91907.56;5039019;28;20027;-80
2022/08/15 03:53:27;;;;;;;6.38;4.35;;;;;;;16.92;77.65;91907.16;5044638;28;20123;-80
2022/08/15 03:55:53;;;;;;;8.93;4.80;;;;;;;16.83;77.92;91905.41;5029096;28;20061;-79
2022/08/15 03:58:18;;;;;;;5.82;4.22;;;;;;;16.81;77.80;91904.22;5045658;28;20166;-79
2022/08/15 04:00:47;;;;;;;7.20;4.68;;;;;;;16.76;77.70;91902.56;5044379;28;20395;-79
2022/08/15 04:03:23;;;;;;;6.88;4.35;;;;;;;16.67;77.95;91896.66;5042697;28;20045;-79
2022/08/15 04:05:51;;;;;;;6.57;4.45;;;;;;;16.67;77.83;91898.53;5025170;28;20034;-80
2022/08/15 04:08:20;;;;;;;6.88;4.45;;;;;;;16.64;77.47;91900.00;5026200;28;20025;-80
2022/08/15 04:10:50;;;;;;;7.88;4.63;;;;;;;16.63;77.67;91909.00;5011762;28;20483;-79
2022/08/15 04:13:25;;;;;;;8.98;4.38;;;;;;;16.61;77.55;91906.69;5028112;28;20060;-79
2022/08/15 04:15:56;;;;;;;8.93;4.75;;;;;;;16.62;77.45;91896.91;5038932;28;20064;-79
2022/08/15 04:18:22;;;;;;;6.90;4.55;;;;;;;16.54;77.56;91887.25;5025166;28;20044;-80
2022/08/15 04:20:48;;;;;;;9.55;4.40;;;;;;;16.56;77.34;91909.59;5025438;28;20025;-80
2022/08/15 04:23:14;;;;;;;10.25;4.50;;;;;;;16.51;77.60;91906.44;5042781;28;20041;-79
2022/08/15 04:25:42;;;;;;;12.48;4.75;;;;;;;16.49;77.39;91904.13;5029847;28;20383;-78
2022/08/15 04:28:10;;;;;;;6.70;4.30;;;;;;;16.50;77.34;91902.22;5024948;28;20060;-79
2022/08/15 04:30:39;;;;;;;9.80;4.50;;;;;;;16.49;77.31;91906.75;5025291;28;20036;-79
2022/08/15 04:33:32;;;;;;;7.10;4.18;;;;;;;16.48;77.33;91904.44;5035960;28;20036;-80
2022/08/15 04:36:02;;;;;;;5.97;4.43;;;;;;;16.46;77.11;91907.44;5025899;28;20033;-79
2022/08/15 04:38:32;;;;;;;8.00;4.43;;;;;;;16.49;77.48;91906.00;5025516;28;20041;-80
2022/08/15 04:40:59;;;;;;;6.60;4.70;;;;;;;16.50;78.02;91910.91;5009277;28;20434;-79
2022/08/15 04:43:25;;;;;;;6.38;4.28;;;;;;;16.52;78.16;91905.31;5035832;28;20127;-80
2022/08/15 04:45:52;;;;;;;7.47;4.70;;;;;;;16.56;77.90;91909.59;5033929;28;20088;-79
2022/08/15 04:48:19;;;;;;;7.25;4.72;;;;;;;16.57;77.70;91907.69;5025042;28;20060;-79
2022/08/15 04:50:48;;;;;;;8.25;4.75;;;;;;;16.58;77.50;91907.38;5024443;28;20038;-79
2022/08/15 04:53:16;;;;;;;6.78;4.65;;;;;;;16.59;78.01;91908.91;5029293;28;20032;-78
2022/08/15 04:55:43;;;;;;;6.88;5.00;;;;;;;16.65;78.54;91917.38;5026259;28;20033;-79
2022/08/15 04:58:13;;;;;;;8.95;5.03;;;;;;;16.70;78.82;91914.47;5045487;28;20036;-82
2022/08/15 05:00:43;;;;;;;9.13;4.60;;;;;;;16.75;78.18;91924.03;5037507;28;20048;-78
2022/08/15 05:03:21;;;;;;;7.28;4.70;;;;;;;16.78;78.22;91913.56;5051706;28;20567;-78
2022/08/15 05:05:56;;;;;;;6.40;4.75;;;;;;;16.83;78.31;91921.28;5039020;28;20071;-79
2022/08/15 05:08:27;;;;;;;8.00;4.50;;;;;;;16.87;77.90;91920.63;5021914;28;20040;-78
2022/08/15 05:11:00;;;;;;;7.30;5.07;;;;;;;16.90;78.21;91925.97;5054149;28;20195;-78
2022/08/15 05:13:30;;;;;;;10.05;5.20;;;;;;;16.96;78.77;91916.69;5038600;28;20043;-78
2022/08/15 05:16:00;;;;;;;14.75;5.05;;;;;;;17.01;79.10;91907.75;5037986;28;20028;-77
2022/08/15 05:18:29;;;;;;;9.63;4.82;;;;;;;17.08;79.04;91910.56;5020529;28;20042;-78
2022/08/15 05:20:56;;;;;;;9.23;5.15;;;;;;;17.12;79.28;91911.44;5035587;28;20359;-77
2022/08/15 05:23:24;;;;;;;10.23;5.13;;;;;;;17.18;78.88;91911.94;5039653;28;20028;-78
2022/08/15 05:25:56;;;;;;;8.32;4.65;;;;;;;17.17;78.38;91908.53;5021918;28;20298;-77
2022/08/15 05:28:23;;;;;;;6.75;4.45;;;;;;;17.31;78.03;91915.28;5026679;28;20029;-78
2022/08/15 05:30:51;;;;;;;8.75;4.32;;;;;;;17.42;77.65;91917.06;5035596;28;20075;-78
2022/08/15 05:33:23;;;;;;;6.32;4.43;;;;;;;17.50;77.41;91907.44;5038762;28;20517;-79
2022/08/15 05:35:54;;;;;;;6.65;4.90;;;;;;;17.60;77.20;91912.19;5020626;28;20105;-78
2022/08/15 05:38:29;;;;;;;9.30;5.00;;;;;;;17.71;76.97;91916.97;5053831;28;20048;-78
2022/08/15 05:40:58;;;;;;;9.38;4.75;;;;;;;17.83;76.71;91915.03;5034890;28;20037;-79
2022/08/15 05:43:30;;;;;;;11.50;4.63;;;;;;;17.93;76.14;91902.38;5029786;28;20024;-81
2022/08/15 05:46:35;;;;;;;6.68;4.38;;;;;;;18.15;75.58;91912.31;5018273;28;20044;-80
2022/08/15 05:49:17;;;;;;;7.38;4.45;;;;;;;18.32;74.94;91919.06;5024544;28;20033;-78
2022/08/15 05:51:48;;;;;;;8.70;4.70;;;;;;;18.46;74.41;91924.69;5022208;28;20037;-78
2022/08/15 05:54:31;;;;;;;6.72;4.70;;;;;;;18.62;73.68;91921.97;5035038;28;20029;-80
2022/08/15 05:57:19;;;;;;;7.60;4.47;;;;;;;18.88;72.22;91918.69;5016872;28;20033;-78
2022/08/15 06:00:01;;;;;;;6.90;4.82;;;;;;;19.05;72.41;91916.69;5017382;28;21290;-80
2022/08/15 06:02:34;;;;;;;7.32;4.75;;;;;;;19.21;72.25;91913.97;5055861;28;20032;-80
2022/08/15 06:05:08;;;;;;;8.60;5.10;;;;;;;19.41;71.91;91920.75;5050065;28;20029;-80
2022/08/15 06:07:34;;;;;;;12.40;5.30;;;;;;;19.58;71.35;91924.03;5021773;28;20040;-80
2022/08/15 06:10:11;;;;;;;9.25;4.53;;;;;;;19.62;71.52;91917.66;5010346;28;20033;-80
2022/08/15 06:12:42;;;;;;;8.73;5.10;;;;;;;19.70;71.31;91914.03;5052272;28;20035;-81
2022/08/15 06:15:14;;;;;;;9.93;5.00;;;;;;;19.80;71.48;91919.84;5028071;28;20037;-82
2022/08/15 06:17:54;;;;;;;9.02;5.03;;;;;;;19.86;71.26;91913.09;5016501;28;20024;-79
2022/08/15 06:20:24;;;;;;;7.28;4.95;;;;;;;19.97;71.54;91921.97;5037962;28;20036;-79
2022/08/15 06:23:05;;;;;;;9.50;5.07;;;;;;;20.00;71.28;91904.59;5038435;28;20096;-79
2022/08/15 06:26:02;;;;;;;9.63;5.50;;;;;;;20.12;70.65;91918.41;5039379;28;20048;-79
2022/08/15 06:28:38;;;;;;;8.70;5.35;;;;;;;20.16;71.33;91924.53;5036494;28;20037;-79
2022/08/15 06:31:11;;;;;;;10.07;5.28;;;;;;;20.18;71.35;91911.66;5055420;28;20421;-80
2022/08/15 06:33:46;;;;;;;8.20;5.00;;;;;;;20.20;70.31;91916.63;5037666;28;20028;-79
2022/08/15 06:36:35;;;;;;;6.28;4.35;;;;;;;20.17;68.79;91919.97;5049949;28;20055;-80
2022/08/15 06:39:23;;;;;;;10.18;5.13;;;;;;;20.16;67.96;91921.13;5020093;28;20032;-79
2022/08/15 06:42:00;;;;;;;9.45;5.38;;;;;;;20.15;68.99;91923.03;5032247;28;20043;-79
2022/08/15 06:44:42;;;;;;;8.75;5.20;;;;;;;20.17;69.54;91919.97;5055830;28;20504;-79
2022/08/15 06:47:12;;;;;;;8.63;4.88;;;;;;;20.25;69.06;91926.19;5037499;28;20544;-79
2022/08/15 06:49:43;;;;;;;12.32;5.10;;;;;;;20.29;68.78;91917.13;5034148;28;20475;-80
2022/08/15 06:52:10;;;;;;;8.10;5.30;;;;;;;20.31;69.41;91919.41;5036223;28;20025;-80
2022/08/15 06:54:39;;;;;;;7.55;5.38;;;;;;;20.27;70.51;91919.38;5052500;28;20486;-79
2022/08/15 06:57:21;;;;;;;7.10;5.07;;;;;;;20.28;70.75;91920.13;5034701;28;20128;-79
2022/08/15 07:00:10;;;;;;;7.13;5.25;;;;;;;20.34;69.29;91919.47;5031658;28;20450;-78
2022/08/15 07:03:06;;;;;;;8.65;5.18;;;;;;;20.39;71.08;91931.66;5032767;28;20032;-78
2022/08/15 07:05:49;;;;;;;9.45;5.35;;;;;;;20.37;71.57;91936.56;5036995;28;20119;-78
2022/08/15 07:08:22;;;;;;;9.23;5.82;;;;;;;20.32;71.34;91928.91;5019432;28;20025;-80
2022/08/15 07:11:01;;;;;;;8.35;5.50;;;;;;;20.39;70.82;91926.34;5021322;28;20120;-80
2022/08/15 07:14:02;;;;;;;8.60;5.70;;;;;;;20.48;68.76;91934.81;5023276;28;20074;-79
2022/08/15 07:16:40;;;;;;;14.80;6.10;;;;;;;20.53;71.96;91939.81;5037521;28;20067;-79
2022/08/15 07:19:08;;;;;;;11.18;6.60;;;;;;;20.48;72.82;91934.81;5038849;28;20041;-80
2022/08/15 07:21:44;;;;;;;10.43;6.35;;;;;;;20.54;72.63;91944.03;5034013;28;20135;-81
2022/08/15 07:24:16;;;;;;;7.78;5.38;;;;;;;20.67;69.08;91939.28;5036320;28;20115;-80
2022/08/15 07:26:55;;;;;;;8.10;5.15;;;;;;;20.74;66.79;91942.03;5020191;28;20036;-80
2022/08/15 07:29:44;;;;;;;11.15;5.90;;;;;;;20.84;66.56;91943.25;5038047;28;20051;-81
2022/08/15 07:32:22;;;;;;;9.85;5.43;;;;;;;20.99;66.17;91942.28;5035330;28;20025;-81
2022/08/15 07:34:57;;;;;;;11.15;5.85;;;;;;;21.17;63.38;91939.81;5024538;28;20483;-80
2022/08/15 07:37:24;;;;;;;14.93;5.40;;;;;;;21.19;61.25;91942.88;5031643;28;20058;-81
2022/08/15 07:40:06;;;;;;;10.52;6.07;;;;;;;21.14;67.34;91937.13;5021932;28;20155;-79
2022/08/15 07:42:41;;;;;;;;;;;;;;;21.07;67.15;91937.03;5038855;28;20053;-79
2022/08/15 07:45:18;;;;;;;12.73;6.25;;;;;;;21.17;65.72;91933.75;5029402;28;20412;-78
2022/08/15 07:48:04;;;;;;;11.05;5.88;;;;;;;21.43;61.94;91935.53;5048316;28;20041;-79
2022/08/15 07:50:35;;;;;;;12.05;5.55;;;;;;;21.42;59.40;91936.66;5001053;28;20128;-78
2022/08/15 07:53:10;;;;;;;9.70;6.35;;;;;;;21.05;60.02;91940.06;5017410;28;20037;-80
2022/08/15 07:55:36;;;;;;;10.00;5.28;;;;;;;21.07;58.30;91945.03;5021867;28;20021;-79
2022/08/15 07:58:22;;;;;;;9.00;5.25;;;;;;;20.98;56.13;91940.00;5009398;28;20025;-78
2022/08/15 08:01:07;;;;;;;9.10;5.60;;;;;;;21.04;59.54;91945.75;5022166;28;20061;-78
2022/08/15 08:03:37;;;;;;;12.82;6.38;;;;;;;21.05;64.75;91949.94;5029149;28;20036;-78
2022/08/15 08:06:31;;;;;;;10.02;6.05;;;;;;;20.99;61.35;91950.28;5031115;28;20037;-79
2022/08/15 08:09:10;;;;;;;9.43;6.20;;;;;;;21.00;59.61;91959.78;5046107;28;20060;-79
2022/08/15 08:12:07;;;;;;;8.20;5.90;;;;;;;20.99;59.63;91954.84;5037026;28;20041;-80
2022/08/15 08:14:45;;;;;;;8.32;5.53;;;;;;;21.13;59.13;91959.53;5030614;28;20489;-80
2022/08/15 08:17:18;;;;;;;19.83;6.47;;;;;;;21.34;65.14;91962.41;5026404;28;20099;-79
2022/08/15 08:19:49;;;;;;;9.23;6.10;;;;;;;21.18;61.19;91969.84;5021195;28;20026;-79
2022/08/15 08:22:33;;;;;;;12.05;5.43;;;;;;;21.26;61.38;91968.81;5020371;28;20037;-79
2022/08/15 08:25:02;;;;;;;9.80;5.88;;;;;;;21.38;60.39;91968.53;5030342;28;20094;-79
2022/08/15 08:27:56;;;;;;;11.68;6.00;;;;;;;21.75;58.61;91969.66;5023474;28;20345;-79
2022/08/15 08:30:33;;;;;;;9.77;5.70;;;;;;;21.85;60.23;91973.56;5037983;28;20123;-78
2022/08/15 08:33:13;;;;;;;11.00;5.70;;;;;;;22.16;59.34;91973.03;5047044;28;20037;-77
2022/08/15 08:36:02;;;;;;;8.63;5.28;;;;;;;22.32;58.50;91980.03;5024514;28;20094;-80
2022/08/15 08:38:41;;;;;;;9.02;5.40;;;;;;;22.28;59.06;91972.00;5041736;28;20033;-77
2022/08/15 08:41:35;;;;;;;10.52;5.55;;;;;;;22.13;59.33;91973.75;5041845;28;20150;-77
2022/08/15 08:44:23;;;;;;;8.70;5.97;;;;;;;21.83;60.50;91971.25;5047139;28;20460;-77
2022/08/15 08:47:36;;;;;;;10.52;5.45;;;;;;;22.06;60.87;91973.72;5044547;28;20418;-79
2022/08/15 08:50:21;;;;;;;10.05;5.35;;;;;;;22.35;60.42;91965.94;5023147;28;20049;-80
2022/08/15 08:53:01;;;;;;;9.00;4.90;;;;;;;22.98;58.91;91969.28;5052907;28;20037;-80
2022/08/15 08:55:59;;;;;;;7.93;5.68;;;;;;;23.31;56.07;91978.97;5053067;28;20110;-80
2022/08/15 08:58:44;;;;;;;14.60;6.05;;;;;;;23.47;54.89;91974.03;5046977;28;20053;-81
2022/08/15 09:01:14;;;;;;;8.65;5.30;;;;;;;23.90;56.68;91987.47;5055788;28;20079;-80
2022/08/15 09:04:03;;;;;;;11.00;5.75;;;;;;;24.01;55.07;91981.38;5016141;28;20486;-80
2022/08/15 09:06:36;;;;;;;19.00;7.53;;;;;;;24.04;55.53;91980.63;5036843;28;20039;-81
2022/08/15 09:09:11;;;;;;;10.98;5.88;;;;;;;24.28;53.98;91979.84;5023406;28;20098;-81
2022/08/15 09:11:54;;;;;;;12.13;5.60;;;;;;;24.43;54.75;91979.81;5034814;28;20068;-81
2022/08/15 09:14:22;;;;;;;11.13;5.65;;;;;;;24.25;55.80;91977.16;5044936;28;20068;-81
2022/08/15 09:16:51;;;;;;;9.35;5.10;;;;;;;24.21;54.13;91982.53;5047238;28;20053;-80
2022/08/15 09:19:46;;;;;;;12.88;6.10;;;;;;;23.92;55.77;91973.00;5038883;28;20038;-81
2022/08/15 09:22:12;;;;;;;10.50;5.78;;;;;;;23.99;56.69;91981.00;5053794;28;20028;-82
2022/08/15 09:24:38;;;;;;;9.63;6.00;;;;;;;24.02;55.67;91978.31;5058303;28;20391;-81
2022/08/15 09:27:34;;;;;;;11.77;5.70;;;;;;;24.25;55.07;91979.84;5036509;28;20025;-80
2022/08/15 09:30:06;;;;;;;11.02;6.00;;;;;;;24.18;55.78;91977.94;5038626;28;20055;-81
2022/08/15 09:32:59;;;;;;;8.65;5.80;;;;;;;24.22;54.68;91980.59;5037807;28;20037;-83
2022/08/15 09:35:46;;;;;;;11.30;5.45;;;;;;;24.37;53.99;91981.38;5038436;28;20071;-81
2022/08/15 09:38:20;;;;;;;7.82;5.55;;;;;;;24.49;52.60;91980.97;5053568;28;20043;-83
2022/08/15 09:41:08;;;;;;;11.00;5.47;;;;;;;24.16;53.41;91971.44;5053355;28;20079;-82
2022/08/15 09:44:00;;;;;;;9.30;5.82;;;;;;;24.06;54.25;91968.38;5036899;28;20037;-80
2022/08/15 09:46:53;;;;;;;10.23;5.53;;;;;;;24.59;51.54;91968.72;5004739;28;20632;-82
2022/08/15 09:49:30;;;;;;;8.55;5.22;;;;;;;24.82;50.13;91957.59;5054599;28;20069;-80
2022/08/15 09:52:14;;;;;;;8.98;5.50;;;;;;;24.86;51.60;91966.38;5034550;28;20043;-82
2022/08/15 09:54:48;;;;;;;8.48;5.20;;;;;;;24.55;52.63;91968.75;5032778;28;20390;-82
2022/08/15 09:57:29;;;;;;;16.48;5.80;;;;;;;24.16;51.55;91966.88;5056513;28;20033;-82
2022/08/15 10:00:06;;;;;;;8.65;5.80;;;;;;;24.37;51.00;91970.66;5054931;28;20032;-82
2022/08/15 10:02:37;;;;;;;9.60;6.13;;;;;;;24.45;50.03;91956.91;5055194;28;20120;-82
2022/08/15 10:05:14;;;;;;;9.02;5.35;;;;;;;24.54;51.11;91935.09;5020640;28;20068;-83
2022/08/15 10:07:45;;;;;;;10.60;5.32;;;;;;;24.54;50.86;91955.75;5054569;28;20116;-82
2022/08/15 10:10:15;;;;;;;9.55;5.57;;;;;;;24.39;49.95;91950.41;5055143;28;20033;-82
2022/08/15 10:13:21;;;;;;;9.45;5.40;;;;;;;24.62;51.48;91944.66;5037909;28;20370;-81
2022/08/15 10:15:48;;;;;;;11.60;6.05;;;;;;;24.72;50.09;91943.06;5045448;28;20052;-82
2022/08/15 10:18:22;;;;;;;8.13;5.40;;;;;;;24.80;50.35;91935.81;5056091;28;20048;-82
2022/08/15 10:21:19;;;;;;;8.07;4.53;;;;;;;24.93;49.40;91939.59;5053661;28;20431;-82
2022/08/15 10:23:49;;;;;;;12.25;5.78;;;;;;;25.12;49.65;91933.75;5046733;28;20079;-82
2022/08/15 10:26:26;;;;;;;7.35;5.07;;;;;;;25.28;49.46;91932.53;5058495;28;20067;-82
2022/08/15 10:29:27;;;;;;;8.65;5.55;;;;;;;25.26;49.77;91935.59;5017798;28;20037;-82
2022/08/15 10:31:57;;;;;;;10.02;4.90;;;;;;;25.35;50.29;91935.19;5013867;28;20564;-82
2022/08/15 10:34:41;;;;;;;10.05;4.90;;;;;;;25.02;50.04;91929.22;5056264;28;20036;-84
2022/08/15 10:37:23;;;;;;;8.55;5.43;;;;;;;25.07;49.19;91938.75;5055357;28;20071;-82
2022/08/15 10:39:57;;;;;;;6.90;4.60;;;;;;;25.23;46.80;91932.97;5056802;28;20347;-82
2022/08/15 10:42:57;;;;;;;9.80;5.00;;;;;;;25.24;48.54;91932.59;5039385;28;20072;-83
2022/08/15 10:45:41;;;;;;;8.32;5.10;;;;;;;25.29;47.76;91936.75;5040326;28;20056;-82
2022/08/15 10:48:20;;;;;;;6.85;5.05;;;;;;;25.34;47.78;91928.31;5055930;28;20033;-82
2022/08/15 10:50:52;;;;;;;7.28;4.57;;;;;;;25.47;48.90;91932.06;5056265;28;20039;-82
2022/08/15 10:53:49;;;;;;;9.63;5.75;;;;;;;25.23;48.16;91933.72;5056041;28;20694;-82
2022/08/15 10:56:24;;;;;;;7.57;5.35;;;;;;;25.37;46.54;91918.72;5055574;28;20137;-82
2022/08/15 10:58:57;;;;;;;8.10;5.80;;;;;;;25.33;46.46;91916.84;5048147;28;20033;-82
2022/08/15 11:01:31;;;;;;;9.00;5.50;;;;;;;25.45;46.22;91923.66;5023642;28;20056;-82
2022/08/15 11:04:13;;;;;;;10.85;5.50;;;;;;;26.01;45.55;91914.81;5044959;28;20108;-82
2022/08/15 11:06:40;;;;;;;;;;;;;;;26.04;47.27;91920.16;5030519;28;20097;-82
2022/08/15 11:09:14;;;;;;;12.30;5.05;;;;;;;25.70;45.47;91914.69;5020987;28;20418;-82
2022/08/15 11:11:48;;;;;;;8.35;5.38;;;;;;;25.72;46.75;91909.69;5057065;28;20097;-83
2022/08/15 11:14:22;;;;;;;11.23;4.15;;;;;;;25.61;44.49;91901.72;5037142;28;20037;-83
2022/08/15 11:16:51;;;;;;;12.52;5.88;;;;;;;25.27;45.03;91893.53;5042351;28;20069;-82
2022/08/15 11:19:33;;;;;;;8.30;5.10;;;;;;;25.79;45.56;91898.91;5019878;28;20033;-81
2022/08/15 11:22:02;;;;;;;8.27;4.93;;;;;;;25.88;43.25;91903.84;5052660;28;20632;-82
2022/08/15 11:24:35;;;;;;;10.05;4.55;;;;;;;26.24;42.64;91901.59;5054588;28;20059;-82
2022/08/15 11:27:24;;;;;;;7.97;4.75;;;;;;;25.82;43.13;91884.69;5056011;28;20059;-82
2022/08/15 11:29:53;;;;;;;6.60;3.88;;;;;;;26.22;44.11;91885.13;5035298;28;20044;-84
2022/08/15 11:32:31;;;;;;;8.63;4.30;;;;;;;26.49;41.96;91884.50;5056779;28;20514;-82
2022/08/15 11:34:59;;;;;;;7.90;3.70;;;;;;;26.27;40.73;91884.69;5055225;28;20040;-82
2022/08/15 11:37:42;;;;;;;8.65;4.60;;;;;;;26.53;41.74;91879.84;5057256;28;20137;-83
2022/08/15 11:40:30;;;;;;;6.78;3.88;;;;;;;26.22;40.87;91879.03;5054796;28;20499;-82
2022/08/15 11:42:58;;;;;;;9.00;4.60;;;;;;;26.41;41.64;91869.63;5060290;28;20086;-82
2022/08/15 11:45:33;;;;;;;7.28;3.78;;;;;;;26.29;40.28;91873.59;5039434;28;20044;-82
2022/08/15 11:48:00;;;;;;;9.23;4.22;;;;;;;26.32;41.11;91878.91;5062340;28;20329;-83
2022/08/15 11:50:29;;;;;;;5.35;3.53;;;;;;;26.42;41.22;91868.47;5060234;28;20029;-82
2022/08/15 11:52:58;;;;;;;6.00;4.00;;;;;;;26.31;39.93;91863.97;5061673;28;20032;-83
2022/08/15 11:55:30;;;;;;;8.25;4.60;;;;;;;26.26;40.23;91867.09;5038833;28;20579;-82
2022/08/15 11:58:12;;;;;;;7.65;4.00;;;;;;;26.12;40.95;91853.81;5060544;28;20037;-83
2022/08/15 12:00:57;;;;;;;7.97;4.00;;;;;;;25.96;40.37;91860.50;5060960;28;20099;-82
2022/08/15 12:03:31;;;;;;;6.53;3.90;;;;;;;26.10;40.98;91866.88;5032393;28;20029;-83
2022/08/15 12:06:18;;;;;;;7.43;4.07;;;;;;;26.41;42.31;91867.69;5054378;28;20029;-82